Queen Elizabeth — ZCEF2 — position and weather

sailwx.info

Track history (hours):
 
Tides and Currents Weather Stations Pressure Air Temp Water Temp Dewpoint Dewpoint Depression Visibility Wind Speed Wind Dir Waves Ship Positions

Queen Elizabeth

Last reported at 2017-Nov-18 08:00 UTC. Time now 2017-Nov-18 10:36 UTC.
Position N 43°54' W 010°12'.

Length 294 m; draft 8 m.

Type: Passenger vessel. MMSI: 310625000.

Wind from 080 at 28 knots

Barometer 1024.1 mb
Air temperature 14.0 ° C
Visibility: greater than 10.8 NM
Dewpoint 10.2 ° C
Water temperature 17.0 ° C

Date/timePositionNaut miles runAvg speedWind from/ knotsBaromVisibWave heightAir tempDewpointWater temp
2017-Nov-18 08:00N 43°54' W 010°12'7114.3 080 / 281024.110.8 14.010.217.0
2017-Nov-18 03:00N 44°54' W 009°18'10615.7 080 / 251028.010.8 14.010.217.0
2017-Nov-17 20:17N 46°26' W 008°03'815.6
2017-Nov-17 19:44N 46°33' W 007°56'1115.5
2017-Nov-17 19:02N 46°42' W 007°48'116.7
2017-Nov-17 19:00N 46°43' W 007°48'7699.2
2017-Nov-17 19:00N 46°36' W 007°48'1427.8 080 / 151028.010.8 13.0 6.816.0
2017-Nov-17 18:30N 46°49' W 007°42'1015.2
2017-Nov-17 17:48N 46°58' W 007°34'615.2
2017-Nov-17 17:24N 47°04' W 007°30'715.3
2017-Nov-17 16:54N 47°11' W 007°25'615.5
2017-Nov-17 16:31N 47°16' W 007°20'815.3
2017-Nov-17 15:59N 47°23' W 007°14'714.8
2017-Nov-17 15:29N 47°29' W 007°08'2 4.0
2017-Nov-17 15:00N 47°30' W 007°06'1522.0 020 / 111028.210.8 13.0 6.815.0
2017-Nov-17 14:19N 47°43' W 006°56'613.9
2017-Nov-17 13:55N 47°48' W 006°52'1013.9
2017-Nov-17 13:11N 47°56' W 006°44'313.9
2017-Nov-17 12:58N 47°59' W 006°41'714.1
2017-Nov-17 12:26N 48°05' W 006°35'1022.2
2017-Nov-17 12:00N 48°12' W 006°24'317.7 360 / 101029.910.8 11.0 3.014.0
2017-Nov-17 11:50N 48°13' W 006°28'1014.9
2017-Nov-17 11:09N 48°21' W 006°20'1315.4
2017-Nov-17 10:18N 48°32' W 006°09'615.9
2017-Nov-17 09:55N 48°37' W 006°04'916.3
2017-Nov-17 09:23N 48°45' W 005°58'716.4
2017-Nov-17 08:58N 48°51' W 005°53'816.0
2017-Nov-17 08:29N 48°56' W 005°43'918.5
2017-Nov-17 08:00N 48°54' W 005°30'756.9 350 / 101028.910.8 12.0 7.914.0
2017-Nov-17 07:52N 49°01' W 005°30'616.4
2017-Nov-17 07:30N 49°04' W 005°22'916.5
2017-Nov-17 06:59N 49°08' W 005°11'4715.0
2017-Nov-17 03:51N 49°33' W 004°10'614.3
2017-Nov-17 03:27N 49°35' W 004°02'714.6
2017-Nov-17 02:57N 49°39' W 003°52'815.1
2017-Nov-17 02:24N 49°44' W 003°42'615.6
2017-Nov-17 02:00N 49°47' W 003°33'816.2
2017-Nov-17 01:30N 49°51' W 003°23'816.9
2017-Nov-17 01:00N 49°55' W 003°11'917.5
2017-Nov-17 00:30N 49°60' W 002°59'917.8
2017-Nov-16 23:58N 50°03' W 002°45'2217.6
2017-Nov-16 22:44N 50°09' W 002°13'416.8
2017-Nov-16 22:30N 50°11' W 002°07'816.2
2017-Nov-16 22:00N 50°15' W 001°56'815.5
2017-Nov-16 21:31N 50°18' W 001°46'714.8
2017-Nov-16 21:00N 50°22' W 001°35'714.1
2017-Nov-16 20:30N 50°25' W 001°26'713.5
2017-Nov-16 20:00N 50°28' W 001°16'612.7
2017-Nov-16 19:30N 50°31' W 001°07'612.1
2017-Nov-16 19:01N 50°35' W 000°60'713.5
2017-Nov-16 18:31N 50°42' W 000°58'612.1
2017-Nov-16 18:00N 50°45' W 001°06'816.6
2017-Nov-16 17:30N 50°48' W 001°19'4 8.4
2017-Nov-16 17:00N 50°51' W 001°21'3 4.9
2017-Nov-16 16:28N 50°53' W 001°24'0 0.0
2017-Nov-16 15:58N 50°53' W 001°24'0 0.0
2017-Nov-16 15:28N 50°53' W 001°24'0 0.0
2017-Nov-16 14:58N 50°53' W 001°24'0 0.0
2017-Nov-16 14:28N 50°53' W 001°24'0 0.0
2017-Nov-16 13:58N 50°53' W 001°24'0 0.0
2017-Nov-16 13:28N 50°53' W 001°24'0 0.0
2017-Nov-16 12:58N 50°53' W 001°24'0 0.0
2017-Nov-16 12:28N 50°53' W 001°24'0 0.0
2017-Nov-16 11:58N 50°53' W 001°24'0 0.0
2017-Nov-16 11:28N 50°53' W 001°24'0 0.0
2017-Nov-16 10:58N 50°53' W 001°24'0 0.0
2017-Nov-16 10:28N 50°53' W 001°24'0 0.0
2017-Nov-16 09:58N 50°53' W 001°24'0 0.0
2017-Nov-16 09:28N 50°53' W 001°24'0 0.0
2017-Nov-16 08:55N 50°53' W 001°24'0 0.0
2017-Nov-16 08:28N 50°53' W 001°24'0 0.0
2017-Nov-16 07:58N 50°53' W 001°24'0 0.0
2017-Nov-16 07:28N 50°53' W 001°24'0 0.0
2017-Nov-16 06:58N 50°53' W 001°24'0 0.0
2017-Nov-16 06:28N 50°53' W 001°24'0 0.9
2017-Nov-16 06:00N 50°53' W 001°24'4 8.8
2017-Nov-16 05:30N 50°50' W 001°19'4 7.8
2017-Nov-16 05:00N 50°46' W 001°16'816.0
2017-Nov-16 04:30N 50°44' W 001°04'612.2
2017-Nov-16 04:00N 50°39' W 000°58'611.3
2017-Nov-16 03:30N 50°34' W 000°60'612.2
2017-Nov-16 03:00N 50°31' W 001°08'713.7
2017-Nov-16 02:30N 50°29' W 001°18'714.2
2017-Nov-16 01:59N 50°26' W 001°29'713.9
2017-Nov-16 01:30N 50°24' W 001°39'713.3
2017-Nov-16 01:00N 50°22' W 001°49'912.8
2017-Nov-16 00:16N 50°19' W 002°03'811.9
2017-Nov-15 23:35N 50°16' W 002°15'112.3
2017-Nov-15 23:27N 50°15' W 002°17'512.0
2017-Nov-15 23:00N 50°14' W 002°25'612.6
2017-Nov-15 22:30N 50°12' W 002°35'713.1
2017-Nov-15 22:00N 50°10' W 002°45'713.5
2017-Nov-15 21:30N 50°07' W 002°54'713.9
2017-Nov-15 21:00N 50°04' W 003°03'713.9
2017-Nov-15 20:31N 49°59' W 003°11'713.1
2017-Nov-15 20:00N 49°53' W 003°17'713.2
2017-Nov-15 19:31N 49°49' W 003°25'713.5
2017-Nov-15 19:00N 49°45' W 003°33'713.7
2017-Nov-15 18:30N 49°40' W 003°41'1113.5
2017-Nov-15 17:43N 49°32' W 003°52'813.6
2017-Nov-15 17:06N 49°26' W 004°01'213.6
2017-Nov-15 16:59N 49°25' W 004°02'713.9
2017-Nov-15 16:28N 49°20' W 004°11'714.3
2017-Nov-15 16:00N 49°16' W 004°18'4258.9
2017-Nov-15 16:00N 49°12' W 004°18'510.6 130 / 11028.110.8 12.0 7.914.0
2017-Nov-15 15:30N 49°11' W 004°26'814.6
2017-Nov-15 14:58N 49°05' W 004°34'715.4
2017-Nov-15 14:30N 49°00' W 004°42'815.6
2017-Nov-15 14:00N 48°55' W 004°50'815.7
2017-Nov-15 13:30N 48°49' W 004°59'815.9
2017-Nov-15 13:00N 48°43' W 005°07'816.2
2017-Nov-15 12:30N 48°38' W 005°16'816.1
2017-Nov-15 12:00N 48°31' W 005°23'81219.7
2017-Nov-15 12:00N 48°24' W 005°30'1 2.2 120 / 141026.210.8 12.0 7.913.0
2017-Nov-15 11:30N 48°24' W 005°32'1019.0
2017-Nov-15 10:59N 48°16' W 005°39'918.8
2017-Nov-15 10:30N 48°08' W 005°46'1018.4
2017-Nov-15 09:57N 47°59' W 005°53'918.1
2017-Nov-15 09:27N 47°51' W 006°00'1317.8
2017-Nov-15 08:43N 47°40' W 006°10'417.6
2017-Nov-15 08:30N 47°36' W 006°13'1317.4
2017-Nov-15 07:46N 47°25' W 006°22'516.8
2017-Nov-15 07:30N 47°21' W 006°25'916.6
2017-Nov-15 06:58N 47°14' W 006°32'817.3
2017-Nov-15 06:30N 47°06' W 006°38'1117.3
2017-Nov-15 05:51N 46°57' W 006°46'7317.0
2017-Nov-15 01:33N 45°54' W 007°38'21716.0
2017-Nov-14 12:00N 42°36' W 009°42'14915.2 100 / 91022.910.8 13.0 6.818.0
2017-Nov-14 02:10N 40°07' W 009°47'214.9
2017-Nov-14 02:00N 40°04' W 009°47'714.8
2017-Nov-14 01:30N 39°57' W 009°48'714.7
2017-Nov-14 01:00N 39°50' W 009°48'714.3
2017-Nov-14 00:30N 39°42' W 009°48'714.0
2017-Nov-14 00:00N 39°35' W 009°47'713.6
2017-Nov-13 23:30N 39°29' W 009°47'713.8
2017-Nov-13 23:00N 39°22' W 009°46'714.4
2017-Nov-13 22:30N 39°15' W 009°45'714.1
2017-Nov-13 22:00N 39°08' W 009°44'129 6.2
2017-Nov-13 01:22N 37°00' W 009°20'919.4
2017-Nov-13 00:54N 36°52' W 009°17'1018.4
2017-Nov-13 00:22N 36°44' W 009°09'1020.1
2017-Nov-12 23:51N 36°41' W 008°57'720.2
2017-Nov-12 23:30N 36°39' W 008°49'2242.3
2017-Nov-12 23:00N 36°30' W 008°24'4 5.6 360 / 281022.010.8 18.012.722.0
2017-Nov-12 22:18N 36°32' W 008°20'2420.1
2017-Nov-12 21:07N 36°24' W 007°51'720.1
2017-Nov-12 20:48N 36°23' W 007°43'1019.9
2017-Nov-12 20:19N 36°21' W 007°32'9317.6
2017-Nov-12 15:01N 35°58' W 005°40'016.5
2017-Nov-12 15:00N 35°58' W 005°40'714.1
2017-Nov-12 14:30N 35°59' W 005°31'611.2
2017-Nov-12 14:00N 36°01' W 005°25'612.3
2017-Nov-12 13:30N 36°07' W 005°23'2 4.3
2017-Nov-12 13:00N 36°09' W 005°22'0 0.0
2017-Nov-12 12:29N 36°09' W 005°22'0 0.0
2017-Nov-12 11:59N 36°09' W 005°22'0 0.0
2017-Nov-12 06:11N 36°09' W 005°22'0 0.0
2017-Nov-12 05:42N 36°09' W 005°22'0 0.6
2017-Nov-12 05:31N 36°09' W 005°22'3 6.3
2017-Nov-12 05:00N 36°06' W 005°22'4 8.4
2017-Nov-12 04:30N 36°05' W 005°17'5 9.7
2017-Nov-12 04:00N 36°06' W 005°11'510.0
2017-Nov-12 03:30N 36°08' W 005°05'44 9.7
2017-Nov-11 23:00N 36°18' W 004°12'52 2.4 090 / 71024.510.8 16.512.918.0
2017-Nov-11 01:21N 36°01' W 005°13'513.7
2017-Nov-11 01:00N 35°59' W 005°18'713.1
2017-Nov-11 00:30N 35°58' W 005°26'2114.1
2017-Nov-10 23:02N 35°53' W 005°51'413.7
2017-Nov-10 22:44N 35°53' W 005°56'312.1
2017-Nov-10 22:29N 35°53' W 005°60'99 5.0
2017-Nov-10 02:33N 36°31' W 007°53'620.4
2017-Nov-10 02:14N 36°31' W 008°01'11216.8
2017-Nov-09 19:34N 37°43' W 009°49'221.4
2017-Nov-09 19:30N 37°44' W 009°50'1421.4
2017-Nov-09 18:50N 37°58' W 009°55'721.6
2017-Nov-09 18:30N 38°05' W 009°57'1121.2
2017-Nov-09 18:00N 38°15' W 009°60'1121.2
2017-Nov-09 17:30N 38°25' W 010°03'1121.5
2017-Nov-09 17:00N 38°36' W 010°05'1121.4
2017-Nov-09 16:30N 38°46' W 010°07'1121.2
2017-Nov-09 16:00N 38°57' W 010°08'1020.7
2017-Nov-09 15:30N 39°07' W 010°08'1121.3
2017-Nov-09 15:00N 39°18' W 010°08'16821.0
2017-Nov-09 07:00N 42°06' W 010°06'   040 / 231032.110.8 14.012.218.0
Track history (hours):
 
Tides and Currents Weather Stations Pressure Air Temp Water Temp Dewpoint Dewpoint Depression Visibility Wind Speed Wind Dir Waves Ship Positions

Queen Elizabeth

Last reported at 2017-Nov-18 08:00 UTC. Time now 2017-Nov-18 10:36 UTC.
Position N 43°54' W 010°12'.

Length 294 m; draft 8 m.

Type: Passenger vessel. MMSI: 310625000.

Wind from 080 at 28 knots

Barometer 1024.1 mb
Air temperature 14.0 ° C
Visibility: greater than 10.8 NM
Dewpoint 10.2 ° C
Water temperature 17.0 ° C

Date/timePositionNaut miles runAvg speedWind from/ knotsBaromVisibWave heightAir tempDewpointWater temp
2017-Nov-18 08:00N 43°54' W 010°12'7114.3 080 / 281024.110.8 14.010.217.0
2017-Nov-18 03:00N 44°54' W 009°18'10615.7 080 / 251028.010.8 14.010.217.0
2017-Nov-17 20:17N 46°26' W 008°03'815.6
2017-Nov-17 19:44N 46°33' W 007°56'1115.5
2017-Nov-17 19:02N 46°42' W 007°48'116.7
2017-Nov-17 19:00N 46°43' W 007°48'7699.2
2017-Nov-17 19:00N 46°36' W 007°48'1427.8 080 / 151028.010.8 13.0 6.816.0
2017-Nov-17 18:30N 46°49' W 007°42'1015.2
2017-Nov-17 17:48N 46°58' W 007°34'615.2
2017-Nov-17 17:24N 47°04' W 007°30'715.3
2017-Nov-17 16:54N 47°11' W 007°25'615.5
2017-Nov-17 16:31N 47°16' W 007°20'815.3
2017-Nov-17 15:59N 47°23' W 007°14'714.8
2017-Nov-17 15:29N 47°29' W 007°08'2 4.0
2017-Nov-17 15:00N 47°30' W 007°06'1522.0 020 / 111028.210.8 13.0 6.815.0
2017-Nov-17 14:19N 47°43' W 006°56'613.9
2017-Nov-17 13:55N 47°48' W 006°52'1013.9
2017-Nov-17 13:11N 47°56' W 006°44'313.9
2017-Nov-17 12:58N 47°59' W 006°41'714.1
2017-Nov-17 12:26N 48°05' W 006°35'1022.2
2017-Nov-17 12:00N 48°12' W 006°24'317.7 360 / 101029.910.8 11.0 3.014.0
2017-Nov-17 11:50N 48°13' W 006°28'1014.9
2017-Nov-17 11:09N 48°21' W 006°20'1315.4
2017-Nov-17 10:18N 48°32' W 006°09'615.9
2017-Nov-17 09:55N 48°37' W 006°04'916.3
2017-Nov-17 09:23N 48°45' W 005°58'716.4
2017-Nov-17 08:58N 48°51' W 005°53'816.0
2017-Nov-17 08:29N 48°56' W 005°43'918.5
2017-Nov-17 08:00N 48°54' W 005°30'756.9 350 / 101028.910.8 12.0 7.914.0
2017-Nov-17 07:52N 49°01' W 005°30'616.4
2017-Nov-17 07:30N 49°04' W 005°22'916.5
2017-Nov-17 06:59N 49°08' W 005°11'4715.0
2017-Nov-17 03:51N 49°33' W 004°10'614.3
2017-Nov-17 03:27N 49°35' W 004°02'714.6
2017-Nov-17 02:57N 49°39' W 003°52'815.1
2017-Nov-17 02:24N 49°44' W 003°42'615.6
2017-Nov-17 02:00N 49°47' W 003°33'816.2
2017-Nov-17 01:30N 49°51' W 003°23'816.9
2017-Nov-17 01:00N 49°55' W 003°11'917.5
2017-Nov-17 00:30N 49°60' W 002°59'917.8
2017-Nov-16 23:58N 50°03' W 002°45'2217.6
2017-Nov-16 22:44N 50°09' W 002°13'416.8
2017-Nov-16 22:30N 50°11' W 002°07'816.2
2017-Nov-16 22:00N 50°15' W 001°56'815.5
2017-Nov-16 21:31N 50°18' W 001°46'714.8
2017-Nov-16 21:00N 50°22' W 001°35'714.1
2017-Nov-16 20:30N 50°25' W 001°26'713.5
2017-Nov-16 20:00N 50°28' W 001°16'612.7
2017-Nov-16 19:30N 50°31' W 001°07'612.1
2017-Nov-16 19:01N 50°35' W 000°60'713.5
2017-Nov-16 18:31N 50°42' W 000°58'612.1
2017-Nov-16 18:00N 50°45' W 001°06'816.6
2017-Nov-16 17:30N 50°48' W 001°19'4 8.4
2017-Nov-16 17:00N 50°51' W 001°21'3 4.9
2017-Nov-16 16:28N 50°53' W 001°24'0 0.0
2017-Nov-16 15:58N 50°53' W 001°24'0 0.0
2017-Nov-16 15:28N 50°53' W 001°24'0 0.0
2017-Nov-16 14:58N 50°53' W 001°24'0 0.0
2017-Nov-16 14:28N 50°53' W 001°24'0 0.0
2017-Nov-16 13:58N 50°53' W 001°24'0 0.0
2017-Nov-16 13:28N 50°53' W 001°24'0 0.0
2017-Nov-16 12:58N 50°53' W 001°24'0 0.0
2017-Nov-16 12:28N 50°53' W 001°24'0 0.0
2017-Nov-16 11:58N 50°53' W 001°24'0 0.0
2017-Nov-16 11:28N 50°53' W 001°24'0 0.0
2017-Nov-16 10:58N 50°53' W 001°24'0 0.0
2017-Nov-16 10:28N 50°53' W 001°24'0 0.0
2017-Nov-16 09:58N 50°53' W 001°24'0 0.0
2017-Nov-16 09:28N 50°53' W 001°24'0 0.0
2017-Nov-16 08:55N 50°53' W 001°24'0 0.0
2017-Nov-16 08:28N 50°53' W 001°24'0 0.0
2017-Nov-16 07:58N 50°53' W 001°24'0 0.0
2017-Nov-16 07:28N 50°53' W 001°24'0 0.0
2017-Nov-16 06:58N 50°53' W 001°24'0 0.0
2017-Nov-16 06:28N 50°53' W 001°24'0 0.9
2017-Nov-16 06:00N 50°53' W 001°24'4 8.8
2017-Nov-16 05:30N 50°50' W 001°19'4 7.8
2017-Nov-16 05:00N 50°46' W 001°16'816.0
2017-Nov-16 04:30N 50°44' W 001°04'612.2
2017-Nov-16 04:00N 50°39' W 000°58'611.3
2017-Nov-16 03:30N 50°34' W 000°60'612.2
2017-Nov-16 03:00N 50°31' W 001°08'713.7
2017-Nov-16 02:30N 50°29' W 001°18'714.2
2017-Nov-16 01:59N 50°26' W 001°29'713.9
2017-Nov-16 01:30N 50°24' W 001°39'713.3
2017-Nov-16 01:00N 50°22' W 001°49'912.8
2017-Nov-16 00:16N 50°19' W 002°03'811.9
2017-Nov-15 23:35N 50°16' W 002°15'112.3
2017-Nov-15 23:27N 50°15' W 002°17'512.0
2017-Nov-15 23:00N 50°14' W 002°25'612.6
2017-Nov-15 22:30N 50°12' W 002°35'713.1
2017-Nov-15 22:00N 50°10' W 002°45'713.5
2017-Nov-15 21:30N 50°07' W 002°54'713.9
2017-Nov-15 21:00N 50°04' W 003°03'713.9
2017-Nov-15 20:31N 49°59' W 003°11'713.1
2017-Nov-15 20:00N 49°53' W 003°17'713.2
2017-Nov-15 19:31N 49°49' W 003°25'713.5
2017-Nov-15 19:00N 49°45' W 003°33'713.7
2017-Nov-15 18:30N 49°40' W 003°41'1113.5
2017-Nov-15 17:43N 49°32' W 003°52'813.6
2017-Nov-15 17:06N 49°26' W 004°01'213.6
2017-Nov-15 16:59N 49°25' W 004°02'713.9
2017-Nov-15 16:28N 49°20' W 004°11'714.3
2017-Nov-15 16:00N 49°16' W 004°18'4258.9
2017-Nov-15 16:00N 49°12' W 004°18'510.6 130 / 11028.110.8 12.0 7.914.0
2017-Nov-15 15:30N 49°11' W 004°26'814.6
2017-Nov-15 14:58N 49°05' W 004°34'715.4
2017-Nov-15 14:30N 49°00' W 004°42'815.6
2017-Nov-15 14:00N 48°55' W 004°50'815.7
2017-Nov-15 13:30N 48°49' W 004°59'815.9
2017-Nov-15 13:00N 48°43' W 005°07'816.2
2017-Nov-15 12:30N 48°38' W 005°16'816.1
2017-Nov-15 12:00N 48°31' W 005°23'81219.7
2017-Nov-15 12:00N 48°24' W 005°30'1 2.2 120 / 141026.210.8 12.0 7.913.0
2017-Nov-15 11:30N 48°24' W 005°32'1019.0
2017-Nov-15 10:59N 48°16' W 005°39'918.8
2017-Nov-15 10:30N 48°08' W 005°46'1018.4
2017-Nov-15 09:57N 47°59' W 005°53'918.1
2017-Nov-15 09:27N 47°51' W 006°00'1317.8
2017-Nov-15 08:43N 47°40' W 006°10'417.6
2017-Nov-15 08:30N 47°36' W 006°13'1317.4
2017-Nov-15 07:46N 47°25' W 006°22'516.8
2017-Nov-15 07:30N 47°21' W 006°25'916.6
2017-Nov-15 06:58N 47°14' W 006°32'817.3
2017-Nov-15 06:30N 47°06' W 006°38'1117.3
2017-Nov-15 05:51N 46°57' W 006°46'7317.0
2017-Nov-15 01:33N 45°54' W 007°38'21716.0
2017-Nov-14 12:00N 42°36' W 009°42'14915.2 100 / 91022.910.8 13.0 6.818.0
2017-Nov-14 02:10N 40°07' W 009°47'214.9
2017-Nov-14 02:00N 40°04' W 009°47'714.8
2017-Nov-14 01:30N 39°57' W 009°48'714.7
2017-Nov-14 01:00N 39°50' W 009°48'714.3
2017-Nov-14 00:30N 39°42' W 009°48'714.0
2017-Nov-14 00:00N 39°35' W 009°47'713.6
2017-Nov-13 23:30N 39°29' W 009°47'713.8
2017-Nov-13 23:00N 39°22' W 009°46'714.4
2017-Nov-13 22:30N 39°15' W 009°45'714.1
2017-Nov-13 22:00N 39°08' W 009°44'129 6.2
2017-Nov-13 01:22N 37°00' W 009°20'919.4
2017-Nov-13 00:54N 36°52' W 009°17'1018.4
2017-Nov-13 00:22N 36°44' W 009°09'1020.1
2017-Nov-12 23:51N 36°41' W 008°57'720.2
2017-Nov-12 23:30N 36°39' W 008°49'2242.3
2017-Nov-12 23:00N 36°30' W 008°24'4 5.6 360 / 281022.010.8 18.012.722.0
2017-Nov-12 22:18N 36°32' W 008°20'2420.1
2017-Nov-12 21:07N 36°24' W 007°51'720.1
2017-Nov-12 20:48N 36°23' W 007°43'1019.9
2017-Nov-12 20:19N 36°21' W 007°32'9317.6
2017-Nov-12 15:01N 35°58' W 005°40'016.5
2017-Nov-12 15:00N 35°58' W 005°40'714.1
2017-Nov-12 14:30N 35°59' W 005°31'611.2
2017-Nov-12 14:00N 36°01' W 005°25'612.3
2017-Nov-12 13:30N 36°07' W 005°23'2 4.3
2017-Nov-12 13:00N 36°09' W 005°22'0 0.0
2017-Nov-12 12:29N 36°09' W 005°22'0 0.0
2017-Nov-12 11:59N 36°09' W 005°22'0 0.0
2017-Nov-12 06:11N 36°09' W 005°22'0 0.0
2017-Nov-12 05:42N 36°09' W 005°22'0 0.6
2017-Nov-12 05:31N 36°09' W 005°22'3 6.3
2017-Nov-12 05:00N 36°06' W 005°22'4 8.4
2017-Nov-12 04:30N 36°05' W 005°17'5 9.7
2017-Nov-12 04:00N 36°06' W 005°11'510.0
2017-Nov-12 03:30N 36°08' W 005°05'44 9.7
2017-Nov-11 23:00N 36°18' W 004°12'52 2.4 090 / 71024.510.8 16.512.918.0
2017-Nov-11 01:21N 36°01' W 005°13'513.7
2017-Nov-11 01:00N 35°59' W 005°18'713.1
2017-Nov-11 00:30N 35°58' W 005°26'2114.1
2017-Nov-10 23:02N 35°53' W 005°51'413.7
2017-Nov-10 22:44N 35°53' W 005°56'312.1
2017-Nov-10 22:29N 35°53' W 005°60'99 5.0
2017-Nov-10 02:33N 36°31' W 007°53'620.4
2017-Nov-10 02:14N 36°31' W 008°01'11216.8
2017-Nov-09 19:34N 37°43' W 009°49'221.4
2017-Nov-09 19:30N 37°44' W 009°50'1421.4
2017-Nov-09 18:50N 37°58' W 009°55'721.6
2017-Nov-09 18:30N 38°05' W 009°57'1121.2
2017-Nov-09 18:00N 38°15' W 009°60'1121.2
2017-Nov-09 17:30N 38°25' W 010°03'1121.5
2017-Nov-09 17:00N 38°36' W 010°05'1121.4
2017-Nov-09 16:30N 38°46' W 010°07'1121.2
2017-Nov-09 16:00N 38°57' W 010°08'1020.7
2017-Nov-09 15:30N 39°07' W 010°08'1121.3
2017-Nov-09 15:00N 39°18' W 010°08'16821.0
2017-Nov-09 07:00N 42°06' W 010°06'   040 / 231032.110.8 14.012.218.0

Dump ship's entire track history